Boston, Massachusetts
Traffic Map
Current Weather Conditions
Boston, Massachusetts
Few Clouds
Few Clouds

Feels Like: 4°
Wind Chill: Ceiling: Unl
Heat Index: Visibility: 10mi
Dew Point: -6° Wind: 12mph
Humidity: 40% Direction: 300° (WNW)
Pressure: 30.3in Gusts: 21mph
Raw Report DataKBOS 231054Z 30010G18KT 10SM FEW025 07/M06 A3030 RMK AO2 SLP259 T00721056
Traffic Incident Summary
Active as of:
Severity:
Category:
InformationThere was an issue retrieving the traffic information for this location. Please try a different location or try again shortly.
Advertisements
Track Severe Weather on mobile